sensor_id;sensor_type;location;lat;lon;timestamp;pressure;altitude;pressure_sealevel;temperature;humidity
73105;BME280;61296;50.526;30.792;2023-11-19T00:01:09;100007.81;;;-2.48;84.44
73105;BME280;61296;50.526;30.792;2023-11-19T00:16:29;100040.56;;;-2.31;83.75
73105;BME280;61296;50.526;30.792;2023-11-19T00:31:48;100039.97;;;-2.23;83.82
73105;BME280;61296;50.526;30.792;2023-11-19T00:47:07;100035.97;;;-2.30;83.79
73105;BME280;61296;50.526;30.792;2023-11-19T01:02:26;100035.50;;;-2.38;83.66
73105;BME280;61296;50.526;30.792;2023-11-19T01:17:47;99973.09;;;-2.50;83.35
73105;BME280;61296;50.526;30.792;2023-11-19T01:33:06;100013.63;;;-2.31;84.07
73105;BME280;61296;50.526;30.792;2023-11-19T01:48:26;99978.44;;;-2.45;84.74
73105;BME280;61296;50.526;30.792;2023-11-19T02:03:46;99999.44;;;-2.47;85.22
73105;BME280;61296;50.526;30.792;2023-11-19T02:19:06;99987.59;;;-2.46;84.90
73105;BME280;61296;50.526;30.792;2023-11-19T02:34:26;100002.09;;;-2.42;85.30
73105;BME280;61296;50.526;30.792;2023-11-19T02:49:45;99972.06;;;-2.64;85.36
73105;BME280;61296;50.526;30.792;2023-11-19T03:05:06;99967.66;;;-2.45;85.80
73105;BME280;61296;50.526;30.792;2023-11-19T03:20:26;99941.59;;;-2.54;85.49
73105;BME280;61296;50.526;30.792;2023-11-19T03:35:48;99927.88;;;-2.58;85.86
73105;BME280;61296;50.526;30.792;2023-11-19T03:51:07;99866.97;;;-2.93;84.91
73105;BME280;61296;50.526;30.792;2023-11-19T04:06:27;99848.75;;;-3.06;83.83
73105;BME280;61296;50.526;30.792;2023-11-19T04:21:46;99922.94;;;-2.46;81.76
73105;BME280;61296;50.526;30.792;2023-11-19T04:37:06;99905.03;;;-2.60;82.15
73105;BME280;61296;50.526;30.792;2023-11-19T04:52:25;99852.00;;;-3.09;79.73
73105;BME280;61296;50.526;30.792;2023-11-19T05:07:44;99933.78;;;-2.56;77.89
73105;BME280;61296;50.526;30.792;2023-11-19T05:23:04;99914.44;;;-2.63;76.77
73105;BME280;61296;50.526;30.792;2023-11-19T05:38:23;99915.56;;;-2.69;76.03
73105;BME280;61296;50.526;30.792;2023-11-19T05:53:43;99836.41;;;-3.12;75.46
73105;BME280;61296;50.526;30.792;2023-11-19T06:09:04;99850.28;;;-2.95;74.35
73105;BME280;61296;50.526;30.792;2023-11-19T06:24:25;99873.34;;;-2.79;73.78
73105;BME280;61296;50.526;30.792;2023-11-19T06:39:45;99885.50;;;-2.86;73.31
73105;BME280;61296;50.526;30.792;2023-11-19T06:55:04;99820.19;;;-2.97;73.44
73105;BME280;61296;50.526;30.792;2023-11-19T07:10:24;99819.47;;;-2.74;72.72
73105;BME280;61296;50.526;30.792;2023-11-19T07:25:43;99854.00;;;-2.47;71.72
73105;BME280;61296;50.526;30.792;2023-11-19T07:41:06;99845.44;;;-2.54;72.15
73105;BME280;61296;50.526;30.792;2023-11-19T07:56:25;99841.28;;;-2.36;72.72
73105;BME280;61296;50.526;30.792;2023-11-19T08:11:45;99784.56;;;-2.84;73.95
73105;BME280;61296;50.526;30.792;2023-11-19T08:27:04;99832.97;;;-2.40;74.21
73105;BME280;61296;50.526;30.792;2023-11-19T08:42:24;99738.41;;;-2.67;74.27
73105;BME280;61296;50.526;30.792;2023-11-19T08:57:43;99752.81;;;-2.53;73.78
73105;BME280;61296;50.526;30.792;2023-11-19T09:13:04;99759.56;;;-2.26;73.85
73105;BME280;61296;50.526;30.792;2023-11-19T09:28:24;99734.03;;;-2.34;73.30
73105;BME280;61296;50.526;30.792;2023-11-19T09:43:43;99727.53;;;-2.28;73.75
73105;BME280;61296;50.526;30.792;2023-11-19T09:59:05;99755.78;;;-2.25;74.29
73105;BME280;61296;50.526;30.792;2023-11-19T10:14:24;99765.28;;;-2.09;73.25
73105;BME280;61296;50.526;30.792;2023-11-19T10:29:47;99735.53;;;-2.23;72.50
73105;BME280;61296;50.526;30.792;2023-11-19T10:45:21;99741.13;;;-2.14;72.41
73105;BME280;61296;50.526;30.792;2023-11-19T11:00:51;99686.06;;;-2.32;72.18
73105;BME280;61296;50.526;30.792;2023-11-19T11:16:12;99670.38;;;-2.49;72.25
73105;BME280;61296;50.526;30.792;2023-11-19T11:31:36;99674.28;;;-2.36;72.09
73105;BME280;61296;50.526;30.792;2023-11-19T11:46:58;99640.56;;;-2.57;71.65
73105;BME280;61296;50.526;30.792;2023-11-19T12:02:21;99638.63;;;-2.52;72.82
73105;BME280;61296;50.526;30.792;2023-11-19T12:17:43;99626.19;;;-2.48;72.80
73105;BME280;61296;50.526;30.792;2023-11-19T12:33:11;99591.66;;;-2.65;73.29
73105;BME280;61296;50.526;30.792;2023-11-19T12:48:31;99579.50;;;-2.86;73.97
73105;BME280;61296;50.526;30.792;2023-11-19T13:03:50;99549.16;;;-2.92;74.64
73105;BME280;61296;50.526;30.792;2023-11-19T13:19:10;99569.41;;;-2.75;76.40
73105;BME280;61296;50.526;30.792;2023-11-19T13:34:31;99565.72;;;-2.79;76.72
73105;BME280;61296;50.526;30.792;2023-11-19T13:49:50;99552.81;;;-2.82;77.53
73105;BME280;61296;50.526;30.792;2023-11-19T14:05:11;99495.72;;;-3.03;77.87
73105;BME280;61296;50.526;30.792;2023-11-19T14:20:30;99508.47;;;-3.14;77.88
73105;BME280;61296;50.526;30.792;2023-11-19T14:35:49;99513.06;;;-3.14;78.36
73105;BME280;61296;50.526;30.792;2023-11-19T14:51:09;99515.47;;;-3.13;78.92
73105;BME280;61296;50.526;30.792;2023-11-19T15:06:28;99491.84;;;-3.16;79.69
73105;BME280;61296;50.526;30.792;2023-11-19T15:21:49;99472.78;;;-3.20;79.83
73105;BME280;61296;50.526;30.792;2023-11-19T15:37:09;99450.09;;;-3.37;79.32
73105;BME280;61296;50.526;30.792;2023-11-19T15:52:31;99466.66;;;-3.25;79.03
73105;BME280;61296;50.526;30.792;2023-11-19T16:07:50;99440.25;;;-3.23;79.80
73105;BME280;61296;50.526;30.792;2023-11-19T16:23:10;99405.09;;;-3.51;80.12
73105;BME280;61296;50.526;30.792;2023-11-19T16:38:29;99421.97;;;-3.21;80.59
73105;BME280;61296;50.526;30.792;2023-11-19T16:53:49;99424.19;;;-3.28;79.72
73105;BME280;61296;50.526;30.792;2023-11-19T17:09:08;99392.22;;;-3.30;80.72
73105;BME280;61296;50.526;30.792;2023-11-19T17:24:32;99356.34;;;-3.44;80.82
73105;BME280;61296;50.526;30.792;2023-11-19T17:39:51;99342.75;;;-3.53;81.53
73105;BME280;61296;50.526;30.792;2023-11-19T17:55:14;99319.28;;;-3.47;81.43
73105;BME280;61296;50.526;30.792;2023-11-19T18:10:33;99317.84;;;-3.39;80.71
73105;BME280;61296;50.526;30.792;2023-11-19T18:25:53;99308.56;;;-3.28;80.98
73105;BME280;61296;50.526;30.792;2023-11-19T18:41:12;99294.13;;;-3.56;81.14
73105;BME280;61296;50.526;30.792;2023-11-19T18:56:34;99305.13;;;-3.34;80.72
73105;BME280;61296;50.526;30.792;2023-11-19T19:11:54;99291.19;;;-3.36;80.45
73105;BME280;61296;50.526;30.792;2023-11-19T19:27:13;99286.03;;;-3.32;81.07
73105;BME280;61296;50.526;30.792;2023-11-19T19:42:32;99263.63;;;-3.46;81.33
73105;BME280;61296;50.526;30.792;2023-11-19T19:57:52;99253.63;;;-3.41;82.22
73105;BME280;61296;50.526;30.792;2023-11-19T20:13:11;99253.22;;;-3.34;81.70
73105;BME280;61296;50.526;30.792;2023-11-19T20:28:33;99230.69;;;-3.57;81.84
73105;BME280;61296;50.526;30.792;2023-11-19T20:43:53;99203.03;;;-3.58;82.50
73105;BME280;61296;50.526;30.792;2023-11-19T20:59:12;99208.84;;;-3.51;82.23
73105;BME280;61296;50.526;30.792;2023-11-19T21:14:35;99194.47;;;-3.60;82.83
73105;BME280;61296;50.526;30.792;2023-11-19T21:29:54;99121.97;;;-4.02;83.23
73105;BME280;61296;50.526;30.792;2023-11-19T21:45:14;99174.41;;;-3.49;83.57
73105;BME280;61296;50.526;30.792;2023-11-19T22:00:34;99144.47;;;-3.61;84.24
73105;BME280;61296;50.526;30.792;2023-11-19T22:15:53;99140.91;;;-3.56;84.37
73105;BME280;61296;50.526;30.792;2023-11-19T22:31:12;99143.69;;;-3.61;85.47
73105;BME280;61296;50.526;30.792;2023-11-19T22:46:32;99107.88;;;-3.75;85.47
73105;BME280;61296;50.526;30.792;2023-11-19T23:01:52;99106.06;;;-3.61;85.49
73105;BME280;61296;50.526;30.792;2023-11-19T23:17:11;99061.13;;;-3.93;86.49
73105;BME280;61296;50.526;30.792;2023-11-19T23:32:35;99110.53;;;-3.57;86.47
73105;BME280;61296;50.526;30.792;2023-11-19T23:47:54;99112.66;;;-3.54;86.70
